Time;durP1;ratioP1;P1;durP2;ratioP2;P2;SDS_P1;SDS_P2;PMS_P1;PMS_P2;Temp;Humidity;BMP_temperature;BMP_pressure;BME280_temperature;BME280_humidity;BME280_pressure;Samples;Min_cycle;Max_cycle;Signal;HPM_P1;HPM_P2
2023/12/21 00:00:17;;;;;;;;;;;9.10;99.90;;;;;;5051988;28;19935;-86
2023/12/21 00:02:43;;;;;;;;;;;9.10;99.90;;;;;;5054469;28;20003;-85
2023/12/21 00:05:09;;;;;;;;;;;9.10;99.90;;;;;;5044061;28;20021;-89
2023/12/21 00:07:34;;;;;;;;;;;9.10;99.90;;;;;;5061411;28;19935;-87
2023/12/21 00:10:00;;;;;;;;;;;9.10;99.90;;;;;;5055532;28;19920;-85
2023/12/21 00:12:26;;;;;;;;;;;9.10;99.90;;;;;;5082465;28;20416;-90
2023/12/21 00:14:51;;;;;;;;;;;9.10;99.90;;;;;;5055570;28;20022;-88
2023/12/21 00:17:17;;;;;;;;;;;9.10;99.90;;;;;;5044584;28;20113;-87
2023/12/21 00:19:42;;;;;;;;;;;9.10;99.90;;;;;;5042840;28;19924;-85
2023/12/21 00:22:08;;;;;;;;;;;9.10;99.90;;;;;;5053278;28;19924;-88
2023/12/21 00:24:34;;;;;;;;;;;9.10;99.90;;;;;;5058445;28;19920;-84
2023/12/21 00:26:59;;;;;;;;;;;9.10;99.90;;;;;;5083732;28;19935;-86
2023/12/21 00:29:25;;;;;;;;;;;9.10;99.90;;;;;;5058889;28;19920;-85
2023/12/21 00:31:50;;;;;;;;;;;9.10;99.90;;;;;;5075691;28;19924;-84
2023/12/21 00:34:16;;;;;;;;;;;9.10;99.90;;;;;;5066946;28;19924;-91
2023/12/21 00:36:42;;;;;;;;;;;9.10;99.90;;;;;;5068593;28;19920;-85
2023/12/21 00:39:08;;;;;;;;;;;9.10;99.90;;;;;;5058621;28;19927;-86
2023/12/21 00:41:34;;;;;;;;;;;9.10;99.90;;;;;;5087229;28;19927;-86
2023/12/21 00:43:59;;;;;;;;;;;9.10;99.90;;;;;;5068842;28;19924;-85
2023/12/21 00:46:25;;;;;;;;;;;9.20;99.90;;;;;;5042539;28;19927;-87
2023/12/21 00:48:50;;;;;;;;;;;9.20;99.90;;;;;;5052231;28;19929;-86
2023/12/21 00:51:16;;;;;;;;;;;9.20;99.90;;;;;;5031277;28;20376;-85
2023/12/21 00:53:42;;;;;;;;;;;9.20;99.90;;;;;;5074893;28;19927;-84
2023/12/21 00:56:07;;;;;;;;;;;9.10;99.90;;;;;;5058078;28;19924;-85
2023/12/21 00:58:33;;;;;;;;;;;9.20;99.90;;;;;;5068067;28;20111;-88
2023/12/21 01:00:59;;;;;;;;;;;9.20;99.90;;;;;;5056987;28;19931;-85
2023/12/21 01:03:24;;;;;;;;;;;9.10;99.90;;;;;;5074742;28;19969;-85
2023/12/21 01:05:50;;;;;;;;;;;9.20;99.90;;;;;;5053428;28;19921;-85
2023/12/21 01:08:16;;;;;;;;;;;9.20;99.90;;;;;;5057433;28;19924;-86
2023/12/21 01:10:41;;;;;;;;;;;9.20;99.90;;;;;;5058173;28;20003;-85
2023/12/21 01:13:07;;;;;;;;;;;9.10;99.90;;;;;;5045917;28;20024;-85
2023/12/21 01:15:33;;;;;;;;;;;9.10;99.90;;;;;;5041362;28;19923;-84
2023/12/21 01:17:58;;;;;;;;;;;9.10;99.90;;;;;;5064287;28;19934;-85
2023/12/21 01:20:24;;;;;;;;;;;9.10;99.90;;;;;;5036180;28;19921;-85
2023/12/21 01:22:50;;;;;;;;;;;9.10;99.90;;;;;;5065634;28;20349;-85
2023/12/21 01:25:15;;;;;;;;;;;9.10;99.90;;;;;;5066075;28;19975;-86
2023/12/21 01:27:41;;;;;;;;;;;9.10;99.90;;;;;;5054959;28;19928;-85
2023/12/21 01:30:07;;;;;;;;;;;8.00;99.90;;;;;;5089954;28;19920;-83
2023/12/21 01:32:33;;;;;;;;;;;8.00;99.90;;;;;;5076297;28;20025;-85
2023/12/21 01:34:59;;;;;;;;;;;9.00;99.90;;;;;;5037369;28;19924;-85
2023/12/21 01:37:24;;;;;;;;;;;9.10;99.90;;;;;;5085045;28;19920;-85
2023/12/21 01:39:50;;;;;;;;;;;9.00;99.90;;;;;;5057045;28;20305;-83
2023/12/21 01:42:16;;;;;;;;;;;9.10;99.90;;;;;;5034971;28;20018;-82
2023/12/21 01:44:41;;;;;;;;;;;9.10;99.90;;;;;;5070268;28;19920;-84
2023/12/21 01:47:07;;;;;;;;;;;9.00;99.90;;;;;;5053949;28;19924;-86
2023/12/21 01:49:33;;;;;;;;;;;9.00;99.90;;;;;;5080776;28;19924;-85
2023/12/21 01:51:58;;;;;;;;;;;9.00;99.90;;;;;;5051899;28;19930;-84
2023/12/21 01:54:24;;;;;;;;;;;8.90;99.90;;;;;;5056804;28;19950;-84
2023/12/21 01:56:50;;;;;;;;;;;9.00;99.90;;;;;;5071409;28;20272;-84
2023/12/21 01:59:16;;;;;;;;;;;9.00;99.90;;;;;;5073886;28;20014;-84
2023/12/21 02:01:41;;;;;;;;;;;8.90;99.90;;;;;;5047830;28;19950;-84
2023/12/21 02:04:07;;;;;;;;;;;8.90;99.90;;;;;;5036305;28;19920;-83
2023/12/21 02:06:33;;;;;;;;;;;8.90;99.90;;;;;;5068491;28;20006;-84
2023/12/21 02:08:59;;;;;;;;;;;8.90;99.90;;;;;;5058930;28;19924;-82
2023/12/21 02:11:24;;;;;;;;;;;8.90;99.90;;;;;;5041650;28;19931;-85
2023/12/21 02:13:50;;;;;;;;;;;8.90;99.90;;;;;;5035543;28;19920;-84
2023/12/21 02:16:42;;;;;;;;;;;8.90;99.90;;;;;;5050127;28;19962;-84
2023/12/21 02:19:09;;;;;;;;;;;8.90;99.90;;;;;;5043254;28;19920;-85
2023/12/21 02:21:35;;;;;;;;;;;8.90;99.90;;;;;;5053303;28;19920;-84
2023/12/21 02:24:03;;;;;;;;;;;8.90;99.90;;;;;;5033180;28;19935;-86
2023/12/21 02:26:28;;;;;;;;;;;8.90;99.90;;;;;;5072890;28;19920;-85
2023/12/21 02:28:54;;;;;;;;;;;8.90;99.90;;;;;;5069772;28;19976;-85
2023/12/21 02:31:20;;;;;;;;;;;8.80;99.90;;;;;;5037350;28;19920;-85
2023/12/21 02:33:45;;;;;;;;;;;8.90;99.90;;;;;;5058954;28;19931;-87
2023/12/21 02:36:11;;;;;;;;;;;8.90;99.90;;;;;;5049617;28;20014;-87
2023/12/21 02:38:37;;;;;;;;;;;8.80;99.90;;;;;;5048145;28;20039;-85
2023/12/21 02:41:03;;;;;;;;;;;8.80;99.90;;;;;;5045626;28;19938;-84
2023/12/21 02:43:28;;;;;;;;;;;8.80;99.90;;;;;;5050482;28;19924;-82
2023/12/21 02:45:54;;;;;;;;;;;8.90;99.90;;;;;;5071509;28;20003;-83
2023/12/21 02:48:19;;;;;;;;;;;8.90;99.90;;;;;;5067839;28;19924;-83
2023/12/21 02:50:45;;;;;;;;;;;8.90;99.90;;;;;;5053004;28;19931;-84
2023/12/21 02:53:11;;;;;;;;;;;8.90;99.90;;;;;;5051741;28;19935;-85
2023/12/21 02:55:36;;;;;;;;;;;8.90;99.90;;;;;;5039518;28;19920;-85
2023/12/21 02:58:02;;;;;;;;;;;8.90;99.90;;;;;;5060359;28;19930;-86
2023/12/21 03:00:28;;;;;;;;;;;8.80;99.90;;;;;;5089768;28;19928;-84
2023/12/21 03:02:54;;;;;;;;;;;8.80;99.90;;;;;;5055433;28;20002;-85
2023/12/21 03:05:19;;;;;;;;;;;8.80;99.90;;;;;;5029990;28;20019;-85
2023/12/21 03:07:45;;;;;;;;;;;8.80;99.90;;;;;;5050096;28;19973;-83
2023/12/21 03:10:10;;;;;;;;;;;8.80;99.90;;;;;;5055700;28;19924;-85
2023/12/21 03:12:36;;;;;;;;;;;8.80;99.90;;;;;;5036118;28;19972;-84
2023/12/21 03:15:02;;;;;;;;;;;8.90;99.90;;;;;;5058658;28;19931;-84
2023/12/21 03:17:28;;;;;;;;;;;8.80;99.90;;;;;;5064921;28;20348;-85
2023/12/21 03:19:53;;;;;;;;;;;8.80;99.90;;;;;;5047983;28;19924;-86
2023/12/21 03:22:19;;;;;;;;;;;8.90;99.90;;;;;;5066261;28;20011;-85
2023/12/21 03:24:45;;;;;;;;;;;8.90;99.90;;;;;;5068191;28;19928;-84
2023/12/21 03:27:12;;;;;;;;;;;8.90;99.90;;;;;;5056190;28;19959;-84
2023/12/21 03:29:38;;;;;;;;;;;8.90;99.90;;;;;;5056373;28;20473;-85
2023/12/21 03:32:04;;;;;;;;;;;8.90;99.90;;;;;;5088750;28;19955;-85
2023/12/21 03:34:29;;;;;;;;;;;8.90;99.90;;;;;;5062902;28;20398;-85
2023/12/21 03:36:55;;;;;;;;;;;8.90;99.90;;;;;;5064929;28;19950;-84
2023/12/21 03:39:20;;;;;;;;;;;8.90;99.90;;;;;;5022658;28;20380;-84
2023/12/21 03:41:46;;;;;;;;;;;8.90;99.90;;;;;;5033940;28;19928;-87
2023/12/21 03:44:11;;;;;;;;;;;8.90;99.90;;;;;;5022687;28;20375;-85
2023/12/21 03:46:37;;;;;;;;;;;8.90;99.90;;;;;;5018857;28;19924;-86
2023/12/21 03:49:03;;;;;;;;;;;8.90;99.90;;;;;;5008390;28;20262;-85
2023/12/21 03:51:28;;;;;;;;;;;8.90;99.90;;;;;;5020962;28;19970;-86
2023/12/21 03:53:54;;;;;;;;;;;8.90;99.90;;;;;;5029741;28;20010;-84
2023/12/21 03:56:20;;;;;;;;;;;8.90;99.90;;;;;;5021584;28;20248;-84
2023/12/21 03:58:45;;;;;;;;;;;8.90;99.90;;;;;;5008763;28;19952;-83
2023/12/21 04:01:11;;;;;;;;;;;8.90;99.90;;;;;;5023510;28;20275;-84
2023/12/21 04:03:36;;;;;;;;;;;8.90;99.90;;;;;;5048409;28;19921;-88
2023/12/21 04:06:02;;;;;;;;;;;8.90;99.90;;;;;;5023945;28;19982;-84
2023/12/21 04:08:28;;;;;;;;;;;8.90;99.90;;;;;;5030167;28;19936;-85
2023/12/21 04:10:53;;;;;;;;;;;8.90;99.90;;;;;;5028287;28;19959;-84
2023/12/21 04:13:19;;;;;;;;;;;8.90;99.90;;;;;;5020813;28;19960;-83
2023/12/21 04:15:44;;;;;;;;;;;8.90;99.90;;;;;;5043126;28;19931;-84
2023/12/21 04:18:10;;;;;;;;;;;8.90;99.90;;;;;;5034929;28;19955;-83
2023/12/21 04:20:36;;;;;;;;;;;8.90;99.90;;;;;;5025560;28;20019;-85
2023/12/21 04:23:01;;;;;;;;;;;8.90;99.90;;;;;;5039147;28;20010;-85
2023/12/21 04:25:27;;;;;;;;;;;8.90;99.90;;;;;;5018942;28;19951;-85
2023/12/21 04:27:52;;;;;;;;;;;8.90;99.90;;;;;;5037215;28;19982;-85
2023/12/21 04:30:19;;;;;;;;;;;8.90;99.90;;;;;;5021983;28;20311;-84
2023/12/21 04:32:44;;;;;;;;;;;8.90;99.90;;;;;;5029031;28;19960;-83
2023/12/21 04:35:10;;;;;;;;;;;8.90;99.90;;;;;;5040864;28;20329;-83
2023/12/21 04:37:36;;;;;;;;;;;8.90;99.90;;;;;;5024475;28;19930;-84
2023/12/21 04:40:02;;;;;;;;;;;8.90;99.90;;;;;;5051594;28;19985;-84
2023/12/21 04:42:28;;;;;;;;;;;8.90;99.90;;;;;;5054190;28;19924;-84
2023/12/21 04:44:54;;;;;;;;;;;8.80;99.90;;;;;;5083601;28;20348;-85
2023/12/21 04:47:19;;;;;;;;;;;8.90;99.90;;;;;;5043132;28;20019;-82
2023/12/21 04:49:45;;;;;;;;;;;8.90;99.90;;;;;;5075626;28;19920;-84
2023/12/21 04:52:10;;;;;;;;;;;8.80;99.90;;;;;;5057078;28;20389;-85
2023/12/21 04:54:36;;;;;;;;;;;8.90;99.90;;;;;;5046086;28;19920;-84
2023/12/21 04:57:02;;;;;;;;;;;8.90;99.90;;;;;;5056646;28;19924;-86
2023/12/21 04:59:28;;;;;;;;;;;8.80;99.90;;;;;;5083445;28;19978;-84
2023/12/21 05:01:56;;;;;;;;;;;8.90;99.90;;;;;;5074254;28;19928;-87
2023/12/21 05:04:21;;;;;;;;;;;8.80;99.90;;;;;;5054872;28;19924;-84
2023/12/21 05:06:47;;;;;;;;;;;8.90;99.90;;;;;;5073999;28;19920;-84
2023/12/21 05:09:12;;;;;;;;;;;8.90;99.90;;;;;;5070333;28;19925;-86
2023/12/21 05:11:38;;;;;;;;;;;8.90;99.90;;;;;;5051116;28;19935;-85
2023/12/21 05:14:04;;;;;;;;;;;8.80;99.90;;;;;;5058861;28;19939;-87
2023/12/21 05:16:29;;;;;;;;;;;8.90;99.90;;;;;;5074627;28;20108;-84
2023/12/21 05:18:55;;;;;;;;;;;8.80;99.90;;;;;;5069770;28;20007;-85
2023/12/21 05:21:20;;;;;;;;;;;8.90;99.90;;;;;;5066527;28;19924;-84
2023/12/21 05:23:46;;;;;;;;;;;8.90;99.90;;;;;;5064951;28;20413;-86
2023/12/21 05:26:12;;;;;;;;;;;8.90;99.90;;;;;;5081559;28;19982;-86
2023/12/21 05:28:42;;;;;;;;;;;8.90;99.90;;;;;;5080202;28;20352;-85
2023/12/21 05:31:08;;;;;;;;;;;8.90;99.90;;;;;;5042833;28;19956;-85
2023/12/21 05:33:33;;;;;;;;;;;8.90;99.90;;;;;;5061160;28;20011;-83
2023/12/21 05:35:59;;;;;;;;;;;8.90;99.90;;;;;;5078375;28;20015;-86
2023/12/21 05:38:25;;;;;;;;;;;8.90;99.90;;;;;;5073727;28;20397;-85
2023/12/21 05:40:50;;;;;;;;;;;8.90;99.90;;;;;;5020477;28;19963;-85
2023/12/21 05:43:16;;;;;;;;;;;8.90;99.90;;;;;;5016488;28;19932;-84
2023/12/21 05:45:42;;;;;;;;;;;8.90;99.90;;;;;;5042136;28;20279;-87
2023/12/21 05:48:08;;;;;;;;;;;9.00;99.90;;;;;;5022359;28;20059;-85
2023/12/21 05:50:33;;;;;;;;;;;8.90;99.90;;;;;;5011429;28;20330;-85
2023/12/21 05:52:59;;;;;;;;;;;8.90;99.90;;;;;;5031379;28;19947;-87
2023/12/21 05:55:24;;;;;;;;;;;9.00;99.90;;;;;;5035275;28;19920;-84
2023/12/21 05:57:50;;;;;;;;;;;9.00;99.90;;;;;;5052722;28;19920;-84
2023/12/21 06:00:16;;;;;;;;;;;8.90;99.90;;;;;;5040874;28;19932;-85
2023/12/21 06:02:42;;;;;;;;;;;9.00;99.90;;;;;;5012360;28;20508;-85
2023/12/21 06:05:08;;;;;;;;;;;8.90;99.90;;;;;;5018022;28;19931;-86
2023/12/21 06:07:34;;;;;;;;;;;9.00;99.90;;;;;;5018097;28;19925;-87
2023/12/21 06:09:59;;;;;;;;;;;9.00;99.90;;;;;;5034162;28;19920;-83
2023/12/21 06:12:25;;;;;;;;;;;9.00;99.90;;;;;;5032310;28;19931;-84
2023/12/21 06:14:51;;;;;;;;;;;8.90;99.90;;;;;;5026570;28;19924;-83
2023/12/21 06:17:17;;;;;;;;;;;9.00;99.90;;;;;;5015531;28;19928;-84
2023/12/21 06:19:43;;;;;;;;;;;9.00;99.90;;;;;;5032836;28;20020;-86
2023/12/21 06:22:09;;;;;;;;;;;9.00;99.90;;;;;;5053696;28;19963;-85
2023/12/21 06:24:34;;;;;;;;;;;9.00;99.90;;;;;;5030952;28;19920;-82
2023/12/21 06:27:00;;;;;;;;;;;9.00;99.90;;;;;;5015204;28;19931;-85
2023/12/21 06:29:25;;;;;;;;;;;9.00;99.90;;;;;;5062591;28;19920;-84
2023/12/21 06:31:51;;;;;;;;;;;9.00;99.90;;;;;;5037198;28;19932;-84
2023/12/21 06:34:16;;;;;;;;;;;9.00;99.90;;;;;;5013551;28;19931;-87
2023/12/21 06:36:42;;;;;;;;;;;9.00;99.90;;;;;;5026203;28;19925;-88
2023/12/21 06:39:08;;;;;;;;;;;9.00;99.90;;;;;;5024910;28;19975;-84
2023/12/21 06:41:34;;;;;;;;;;;9.00;99.90;;;;;;5028517;28;19920;-87
2023/12/21 06:44:00;;;;;;;;;;;9.00;99.90;;;;;;5032887;28;19954;-84
2023/12/21 06:46:25;;;;;;;;;;;9.00;99.90;;;;;;5019071;28;19925;-85
2023/12/21 06:48:51;;;;;;;;;;;9.00;99.90;;;;;;5026739;28;20386;-87
2023/12/21 06:51:16;;;;;;;;;;;9.10;99.90;;;;;;5025246;28;19921;-85
2023/12/21 06:53:42;;;;;;;;;;;9.00;99.90;;;;;;5057588;28;19982;-83
2023/12/21 06:56:09;;;;;;;;;;;9.00;99.90;;;;;;5014651;28;19925;-85
2023/12/21 06:58:34;;;;;;;;;;;9.10;99.90;;;;;;5040702;28;20338;-87
2023/12/21 07:01:00;;;;;;;;;;;9.10;99.90;;;;;;5044433;28;19924;-86
2023/12/21 07:03:26;;;;;;;;;;;9.10;99.90;;;;;;5041632;28;20423;-86
2023/12/21 07:05:52;;;;;;;;;;;9.10;99.90;;;;;;5030278;28;19928;-86
2023/12/21 07:08:17;;;;;;;;;;;9.10;99.90;;;;;;5057650;28;20564;-86
2023/12/21 07:10:43;;;;;;;;;;;9.10;99.90;;;;;;5029931;28;20315;-87
2023/12/21 07:13:09;;;;;;;;;;;9.00;99.90;;;;;;5017253;28;19931;-86
2023/12/21 07:15:35;;;;;;;;;;;9.00;99.90;;;;;;5036437;28;19971;-89
2023/12/21 07:18:00;;;;;;;;;;;9.10;99.90;;;;;;5050121;28;19925;-88
2023/12/21 07:20:28;;;;;;;;;;;9.10;99.90;;;;;;5021550;28;19920;-87
2023/12/21 07:22:54;;;;;;;;;;;9.00;99.90;;;;;;5024476;28;19921;-88
2023/12/21 07:25:19;;;;;;;;;;;9.10;99.90;;;;;;5033077;28;19931;-87
2023/12/21 07:27:45;;;;;;;;;;;9.00;99.90;;;;;;5038523;28;19936;-91
2023/12/21 07:30:11;;;;;;;;;;;9.00;99.90;;;;;;5069491;28;19936;-86
2023/12/21 07:32:37;;;;;;;;;;;9.00;99.90;;;;;;5035861;28;19981;-88
2023/12/21 07:35:02;;;;;;;;;;;8.50;99.90;;;;;;5046040;28;19935;-84
2023/12/21 07:37:28;;;;;;;;;;;9.00;99.90;;;;;;5033459;28;19924;-88
2023/12/21 07:39:53;;;;;;;;;;;9.00;99.90;;;;;;5062631;28;20384;-88
2023/12/21 07:42:19;;;;;;;;;;;9.10;99.90;;;;;;5047926;28;19926;-88
2023/12/21 07:44:45;;;;;;;;;;;9.10;99.90;;;;;;5028498;28;19928;-88
2023/12/21 07:47:10;;;;;;;;;;;9.10;99.90;;;;;;5031212;28;20373;-89
2023/12/21 07:49:36;;;;;;;;;;;9.10;99.90;;;;;;5052260;28;19977;-86
2023/12/21 07:52:02;;;;;;;;;;;9.10;99.90;;;;;;5015043;28;19962;-87
2023/12/21 07:54:27;;;;;;;;;;;9.10;99.90;;;;;;5041913;28;19924;-86
2023/12/21 07:56:53;;;;;;;;;;;9.10;99.90;;;;;;5044712;28;20367;-87
2023/12/21 07:59:19;;;;;;;;;;;9.10;99.90;;;;;;5030759;28;19931;-85
2023/12/21 08:01:46;;;;;;;;;;;9.10;99.90;;;;;;5039269;28;20066;-87
2023/12/21 08:04:11;;;;;;;;;;;9.10;99.90;;;;;;5037971;28;19925;-87
2023/12/21 08:06:37;;;;;;;;;;;9.20;99.90;;;;;;5033521;28;19924;-89
2023/12/21 08:09:03;;;;;;;;;;;9.20;99.90;;;;;;5018617;28;19929;-85
2023/12/21 08:11:28;;;;;;;;;;;9.20;99.90;;;;;;5045212;28;19934;-88
2023/12/21 08:13:54;;;;;;;;;;;9.20;99.90;;;;;;5059895;28;19955;-84
2023/12/21 08:16:19;;;;;;;;;;;9.10;99.90;;;;;;5015004;28;19931;-88
2023/12/21 08:18:45;;;;;;;;;;;9.20;99.90;;;;;;5029712;28;20235;-83
2023/12/21 08:21:11;;;;;;;;;;;9.20;99.90;;;;;;5033917;28;19948;-85
2023/12/21 08:23:37;;;;;;;;;;;9.20;99.90;;;;;;5029107;28;19967;-87
2023/12/21 08:26:03;;;;;;;;;;;9.20;99.90;;;;;;5036284;28;19987;-87
2023/12/21 08:28:30;;;;;;;;;;;9.30;99.90;;;;;;5043399;28;19936;-85
2023/12/21 08:30:56;;;;;;;;;;;;;;;;;;5017805;28;20023;-85
2023/12/21 08:33:22;;;;;;;;;;;;;;;;;;5031206;28;20007;-86
2023/12/21 08:35:48;;;;;;;;;;;9.40;99.90;;;;;;5023138;28;19925;-83
2023/12/21 08:38:13;;;;;;;;;;;9.40;99.90;;;;;;5053232;28;19924;-88
2023/12/21 08:40:39;;;;;;;;;;;9.40;99.90;;;;;;5040441;28;19925;-85
2023/12/21 08:43:05;;;;;;;;;;;9.40;99.90;;;;;;5038523;28;19931;-85
2023/12/21 08:45:32;;;;;;;;;;;9.10;99.90;;;;;;5040129;28;19925;-87
2023/12/21 08:47:57;;;;;;;;;;;9.50;99.90;;;;;;5009744;28;19936;-86
2023/12/21 08:50:23;;;;;;;;;;;9.50;99.90;;;;;;5036633;28;19924;-86
2023/12/21 08:52:49;;;;;;;;;;;9.50;99.90;;;;;;5035515;28;20008;-89
2023/12/21 08:55:14;;;;;;;;;;;9.50;99.90;;;;;;5053676;28;19956;-85
2023/12/21 08:57:40;;;;;;;;;;;9.60;99.90;;;;;;5039266;28;20003;-83
2023/12/21 09:00:06;;;;;;;;;;;9.60;99.90;;;;;;5033887;28;20346;-84
2023/12/21 09:02:33;;;;;;;;;;;9.60;99.90;;;;;;5045011;28;19974;-84
2023/12/21 09:04:59;;;;;;;;;;;9.60;99.90;;;;;;5013367;28;19960;-85
2023/12/21 09:07:24;;;;;;;;;;;9.60;99.90;;;;;;5036730;28;20495;-85
2023/12/21 09:09:51;;;;;;;;;;;9.70;99.90;;;;;;5059307;28;20015;-87
2023/12/21 09:12:18;;;;;;;;;;;9.70;99.90;;;;;;5035249;28;19971;-90
2023/12/21 09:14:44;;;;;;;;;;;9.70;99.90;;;;;;5025932;28;19931;-84
2023/12/21 09:17:10;;;;;;;;;;;9.80;99.90;;;;;;5035745;28;19920;-87
2023/12/21 09:19:36;;;;;;;;;;;9.80;99.90;;;;;;5022209;28;19927;-87
2023/12/21 09:22:01;;;;;;;;;;;9.80;99.90;;;;;;5039021;28;19935;-86
2023/12/21 09:24:27;;;;;;;;;;;9.80;99.90;;;;;;5037947;28;19924;-85
2023/12/21 09:26:53;;;;;;;;;;;;;;;;;;5037221;28;20005;-84
2023/12/21 09:29:19;;;;;;;;;;;;;;;;;;5040278;28;19929;-85
2023/12/21 09:31:45;;;;;;;;;;;;;;;;;;5054944;28;20234;-84
2023/12/21 09:34:11;;;;;;;;;;;;;;;;;;5035119;28;19921;-85
2023/12/21 09:36:37;;;;;;;;;;;;;;;;;;5032948;28;19944;-87
2023/12/21 09:39:03;;;;;;;;;;;;;;;;;;5043034;28;20284;-83
2023/12/21 09:41:29;;;;;;;;;;;;;;;;;;5061277;28;19931;-84
2023/12/21 09:43:57;;;;;;;;;;;10.30;99.90;;;;;;5053264;28;19920;-87
2023/12/21 09:46:25;;;;;;;;;;;10.50;99.90;;;;;;5057498;28;19928;-87
2023/12/21 09:48:53;;;;;;;;;;;10.30;99.90;;;;;;5056004;28;19928;-84
2023/12/21 09:51:19;;;;;;;;;;;10.50;99.90;;;;;;5055677;28;19920;-83
2023/12/21 09:53:46;;;;;;;;;;;10.10;99.90;;;;;;5054034;28;19931;-86
2023/12/21 09:56:13;;;;;;;;;;;10.10;99.90;;;;;;5054451;28;20277;-85
2023/12/21 09:58:39;;;;;;;;;;;10.80;99.90;;;;;;5067029;28;19968;-86
2023/12/21 10:01:05;;;;;;;;;;;10.20;99.90;;;;;;5033342;28;19955;-85
2023/12/21 10:03:32;;;;;;;;;;;10.30;99.90;;;;;;5036502;28;19939;-85
2023/12/21 10:05:58;;;;;;;;;;;10.20;99.90;;;;;;5051384;28;19924;-87
2023/12/21 10:08:23;;;;;;;;;;;10.20;99.90;;;;;;5053615;28;19950;-86
2023/12/21 10:10:49;;;;;;;;;;;10.30;99.90;;;;;;5052099;28;19924;-85
2023/12/21 10:13:15;;;;;;;;;;;10.20;99.90;;;;;;5041288;28;19920;-84
2023/12/21 10:15:40;;;;;;;;;;;10.20;99.90;;;;;;5071384;28;19920;-85
2023/12/21 10:18:06;;;;;;;;;;;10.20;99.90;;;;;;5043981;28;20335;-88
2023/12/21 10:20:32;;;;;;;;;;;10.30;99.90;;;;;;5071152;28;19928;-86
2023/12/21 10:22:58;;;;;;;;;;;10.30;99.90;;;;;;5062018;28;19940;-87
2023/12/21 10:25:25;;;;;;;;;;;9.60;99.90;;;;;;5045865;28;19967;-84
2023/12/21 10:27:56;;;;;;;;;;;10.40;99.90;;;;;;5047146;28;19985;-86
2023/12/21 10:30:23;;;;;;;;;;;10.40;99.90;;;;;;5048636;28;20176;-84
2023/12/21 10:32:55;;;;;;;;;;;10.60;99.90;;;;;;5066772;28;19920;-85
2023/12/21 10:35:22;;;;;;;;;;;10.60;99.90;;;;;;5077673;28;19920;-88
2023/12/21 10:37:48;;;;;;;;;;;10.70;99.90;;;;;;5075949;28;19959;-85
2023/12/21 10:40:14;;;;;;;;;;;10.60;99.90;;;;;;5058425;28;19924;-85
2023/12/21 10:42:43;;;;;;;;;;;10.40;99.90;;;;;;5074465;28;19920;-86
2023/12/21 10:45:13;;;;;;;;;;;10.50;99.90;;;;;;5051555;28;19924;-88
2023/12/21 10:47:42;;;;;;;;;;;10.30;99.90;;;;;;5055697;28;20285;-83
2023/12/21 10:50:08;;;;;;;;;;;10.60;99.90;;;;;;5051739;28;19932;-83
2023/12/21 10:52:34;;;;;;;;;;;10.50;99.90;;;;;;5070200;28;19932;-84
2023/12/21 10:55:00;;;;;;;;;;;10.50;99.90;;;;;;5074609;28;19927;-85
2023/12/21 10:57:26;;;;;;;;;;;10.60;99.90;;;;;;5039105;28;19969;-84
2023/12/21 10:59:52;;;;;;;;;;;10.30;99.90;;;;;;5031210;28;19924;-87
2023/12/21 11:02:18;;;;;;;;;;;10.60;99.90;;;;;;5071970;28;20295;-87
2023/12/21 11:04:44;;;;;;;;;;;10.70;99.90;;;;;;5063678;28;20363;-87
2023/12/21 11:07:11;;;;;;;;;;;11.20;99.90;;;;;;5038856;28;20007;-86
2023/12/21 11:09:37;;;;;;;;;;;10.60;99.90;;;;;;5055585;28;19924;-85
2023/12/21 11:12:02;;;;;;;;;;;10.50;99.90;;;;;;5033981;28;19967;-86
2023/12/21 11:14:28;;;;;;;;;;;10.30;99.90;;;;;;5067583;28;20357;-84
2023/12/21 11:16:57;;;;;;;;;;;10.30;99.90;;;;;;5087853;28;20502;-88
2023/12/21 11:19:34;;;;;;;;;;;10.70;99.90;;;;;;5070873;28;20404;-84
2023/12/21 11:22:00;;;;;;;;;;;9.90;99.90;;;;;;5057349;28;20401;-86
2023/12/21 11:24:26;;;;;;;;;;;10.50;99.90;;;;;;5060265;28;19927;-83
2023/12/21 11:26:52;;;;;;;;;;;10.70;99.90;;;;;;5045943;28;19924;-85
2023/12/21 11:29:27;;;;;;;;;;;10.60;99.90;;;;;;5070879;28;19939;-84
2023/12/21 11:31:54;;;;;;;;;;;10.80;99.90;;;;;;5044101;28;20029;-86
2023/12/21 11:34:24;;;;;;;;;;;10.70;99.90;;;;;;5067091;28;19920;-84
2023/12/21 11:36:52;;;;;;;;;;;10.70;99.90;;;;;;5072556;28;19920;-83
2023/12/21 11:39:19;;;;;;;;;;;11.10;99.90;;;;;;5042132;28;19928;-85
2023/12/21 11:41:48;;;;;;;;;;;9.90;99.90;;;;;;5034511;28;19924;-87
2023/12/21 11:44:14;;;;;;;;;;;10.90;99.90;;;;;;5012893;28;20258;-87
2023/12/21 11:46:40;;;;;;;;;;;11.00;99.90;;;;;;5035712;28;19920;-85
2023/12/21 11:49:07;;;;;;;;;;;10.70;99.90;;;;;;5034954;28;19936;-84
2023/12/21 11:51:34;;;;;;;;;;;10.80;99.90;;;;;;5041396;28;19924;-86
2023/12/21 11:54:05;;;;;;;;;;;10.80;99.90;;;;;;5018982;28;20007;-83
2023/12/21 11:56:35;;;;;;;;;;;10.80;99.90;;;;;;5019907;28;19987;-85
2023/12/21 11:59:03;;;;;;;;;;;10.70;99.90;;;;;;5019044;28;19924;-87
2023/12/21 12:01:29;;;;;;;;;;;10.80;99.90;;;;;;5036213;28;20253;-84
2023/12/21 12:03:55;;;;;;;;;;;10.70;99.90;;;;;;5020353;28;19932;-86
2023/12/21 12:06:21;;;;;;;;;;;10.80;99.90;;;;;;5020190;28;19921;-84
2023/12/21 12:08:47;;;;;;;;;;;10.90;99.90;;;;;;5020796;28;20350;-84
2023/12/21 12:11:13;;;;;;;;;;;10.90;99.90;;;;;;5043872;28;20035;-85
2023/12/21 12:13:39;;;;;;;;;;;10.90;99.90;;;;;;5057021;28;20368;-87
2023/12/21 12:16:05;;;;;;;;;;;10.80;99.90;;;;;;5047158;28;19920;-85
2023/12/21 12:18:32;;;;;;;;;;;11.30;99.90;;;;;;5053681;28;20007;-87
2023/12/21 12:21:00;;;;;;;;;;;10.80;99.90;;;;;;5031418;28;20277;-83
2023/12/21 12:23:27;;;;;;;;;;;10.90;99.90;;;;;;5039478;28;20019;-87
2023/12/21 12:25:52;;;;;;;;;;;10.70;99.90;;;;;;5039573;28;20398;-84
2023/12/21 12:28:23;;;;;;;;;;;10.80;99.90;;;;;;5059965;28;19972;-83
2023/12/21 12:30:49;;;;;;;;;;;11.40;99.90;;;;;;5039197;28;19931;-85
2023/12/21 12:33:15;;;;;;;;;;;11.30;99.90;;;;;;5038900;28;19920;-85
2023/12/21 12:35:43;;;;;;;;;;;;;;;;;;5038664;28;20567;-87
2023/12/21 12:38:08;;;;;;;;;;;9.60;99.90;;;;;;5043921;28;19976;-88
2023/12/21 12:40:34;;;;;;;;;;;8.90;99.90;;;;;;5030093;28;20345;-85
2023/12/21 12:43:00;;;;;;;;;;;;;;;;;;5048240;28;19921;-85
2023/12/21 12:45:26;;;;;;;;;;;;;;;;;;5023265;28;20391;-87
2023/12/21 12:47:52;;;;;;;;;;;;;;;;;;5034357;28;20032;-85
2023/12/21 12:50:23;;;;;;;;;;;7.80;99.90;;;;;;5044721;28;20087;-85
2023/12/21 12:52:49;;;;;;;;;;;6.60;99.90;;;;;;5020022;28;20008;-88
2023/12/21 12:55:14;;;;;;;;;;;7.40;99.90;;;;;;5044245;28;20090;-88
2023/12/21 12:57:46;;;;;;;;;;;7.30;99.90;;;;;;5027486;28;20411;-86
2023/12/21 13:00:16;;;;;;;;;;;7.20;99.90;;;;;;5061746;28;19935;-88
2023/12/21 13:02:42;;;;;;;;;;;7.10;99.90;;;;;;5044143;28;20598;-86
2023/12/21 13:05:08;;;;;;;;;;;7.00;99.90;;;;;;5044130;28;19924;-85
2023/12/21 13:07:48;;;;;;;;;;;7.00;99.90;;;;;;5022916;28;20491;-90
2023/12/21 13:10:15;;;;;;;;;;;7.00;99.90;;;;;;5052688;28;19932;-87
2023/12/21 13:12:42;;;;;;;;;;;7.10;99.90;;;;;;5035158;28;19921;-86
2023/12/21 13:15:08;;;;;;;;;;;7.20;99.90;;;;;;5038795;28;19921;-87
2023/12/21 13:17:34;;;;;;;;;;;7.00;99.90;;;;;;5046872;28;19927;-91
2023/12/21 13:20:00;;;;;;;;;;;7.10;99.90;;;;;;5049126;28;19920;-88
2023/12/21 13:22:25;;;;;;;;;;;7.10;99.90;;;;;;5039076;28;20360;-89
2023/12/21 13:24:51;;;;;;;;;;;7.10;99.90;;;;;;5020253;28;19935;-90
2023/12/21 13:27:17;;;;;;;;;;;7.10;99.90;;;;;;5015891;28;19920;-87
2023/12/21 13:29:42;;;;;;;;;;;7.10;99.90;;;;;;5049512;28;19921;-86
2023/12/21 13:32:08;;;;;;;;;;;7.10;99.90;;;;;;5048753;28;19950;-86
2023/12/21 13:34:34;;;;;;;;;;;7.00;99.90;;;;;;5036863;28;19920;-87
2023/12/21 13:37:02;;;;;;;;;;;7.00;99.90;;;;;;5021507;28;19921;-87
2023/12/21 13:39:28;;;;;;;;;;;7.00;99.90;;;;;;5020016;28;20362;-84
2023/12/21 13:41:56;;;;;;;;;;;7.00;99.90;;;;;;5048341;28;20257;-88
2023/12/21 13:44:22;;;;;;;;;;;6.90;99.90;;;;;;5065211;28;19925;-87
2023/12/21 13:46:51;;;;;;;;;;;6.80;99.90;;;;;;5017277;28;19924;-86
2023/12/21 13:49:17;;;;;;;;;;;6.60;99.90;;;;;;5039470;28;19924;-90
2023/12/21 13:51:43;;;;;;;;;;;7.10;99.90;;;;;;5020250;28;19935;-88
2023/12/21 13:54:10;;;;;;;;;;;6.70;99.90;;;;;;5036647;28;19926;-85
2023/12/21 13:56:35;;;;;;;;;;;7.50;99.90;;;;;;5053085;28;19951;-87
2023/12/21 13:59:01;;;;;;;;;;;6.50;99.90;;;;;;5038593;28;19924;-87
2023/12/21 14:01:27;;;;;;;;;;;6.50;99.90;;;;;;5027386;28;19920;-89
2023/12/21 14:03:55;;;;;;;;;;;6.60;99.90;;;;;;5038671;28;20435;-88
2023/12/21 14:06:20;;;;;;;;;;;6.50;99.90;;;;;;5050157;28;19986;-89
2023/12/21 14:08:46;;;;;;;;;;;6.50;99.90;;;;;;5030521;28;19971;-91
2023/12/21 14:11:12;;;;;;;;;;;6.50;99.90;;;;;;5039410;28;19920;-84
2023/12/21 14:13:37;;;;;;;;;;;6.60;99.90;;;;;;5021078;28;19970;-92
2023/12/21 14:16:04;;;;;;;;;;;6.60;99.90;;;;;;5063875;28;19935;-92
2023/12/21 14:18:32;;;;;;;;;;;5.20;99.90;;;;;;5034214;28;20013;-91
2023/12/21 14:20:58;;;;;;;;;;;6.60;99.90;;;;;;5033194;28;19977;-89
2023/12/21 14:23:24;;;;;;;;;;;6.70;99.90;;;;;;5039669;28;20427;-88